sensor_id;sensor_type;location;lat;lon;timestamp;temperature;humidity
6244;DHT22;3155;49.940;8.450;2023-02-28T00:00:37;-2.40;99.90
6244;DHT22;3155;49.940;8.450;2023-02-28T00:03:05;-2.30;99.90
6244;DHT22;3155;49.940;8.450;2023-02-28T00:05:32;-2.40;99.90
6244;DHT22;3155;49.940;8.450;2023-02-28T00:07:59;-2.40;99.90
6244;DHT22;3155;49.940;8.450;2023-02-28T00:10:29;-2.30;99.90
6244;DHT22;3155;49.940;8.450;2023-02-28T00:13:00;-2.40;99.90
6244;DHT22;3155;49.940;8.450;2023-02-28T00:15:27;-2.40;99.90
6244;DHT22;3155;49.940;8.450;2023-02-28T00:17:54;-2.30;99.90
6244;DHT22;3155;49.940;8.450;2023-02-28T00:20:21;-2.30;99.90
6244;DHT22;3155;49.940;8.450;2023-02-28T00:22:51;-2.10;99.90
6244;DHT22;3155;49.940;8.450;2023-02-28T00:25:24;-2.10;99.90
6244;DHT22;3155;49.940;8.450;2023-02-28T00:27:55;-2.00;99.90
6244;DHT22;3155;49.940;8.450;2023-02-28T00:30:22;-2.00;99.90
6244;DHT22;3155;49.940;8.450;2023-02-28T00:32:50;-2.00;99.90
6244;DHT22;3155;49.940;8.450;2023-02-28T00:35:17;-2.00;99.90
6244;DHT22;3155;49.940;8.450;2023-02-28T00:37:44;-2.00;99.90
6244;DHT22;3155;49.940;8.450;2023-02-28T00:40:14;-2.00;99.90
6244;DHT22;3155;49.940;8.450;2023-02-28T00:42:41;-2.10;99.90
6244;DHT22;3155;49.940;8.450;2023-02-28T00:45:10;-2.10;99.90
6244;DHT22;3155;49.940;8.450;2023-02-28T00:47:37;-2.10;99.90
6244;DHT22;3155;49.940;8.450;2023-02-28T00:50:04;-2.10;99.90
6244;DHT22;3155;49.940;8.450;2023-02-28T00:52:31;-2.20;99.90
6244;DHT22;3155;49.940;8.450;2023-02-28T00:55:01;-2.20;99.90
6244;DHT22;3155;49.940;8.450;2023-02-28T00:57:28;-2.30;99.90
6244;DHT22;3155;49.940;8.450;2023-02-28T00:59:55;-2.30;99.90
6244;DHT22;3155;49.940;8.450;2023-02-28T01:02:22;-2.20;99.90
6244;DHT22;3155;49.940;8.450;2023-02-28T01:04:49;-2.10;99.90
6244;DHT22;3155;49.940;8.450;2023-02-28T01:07:16;-2.10;99.90
6244;DHT22;3155;49.940;8.450;2023-02-28T01:09:42;-2.10;99.90
6244;DHT22;3155;49.940;8.450;2023-02-28T01:12:09;-2.20;99.90
6244;DHT22;3155;49.940;8.450;2023-02-28T01:14:38;-2.20;99.90
6244;DHT22;3155;49.940;8.450;2023-02-28T01:17:04;-2.30;99.90
6244;DHT22;3155;49.940;8.450;2023-02-28T01:19:32;-2.30;99.90
6244;DHT22;3155;49.940;8.450;2023-02-28T01:22:03;-2.40;99.90
6244;DHT22;3155;49.940;8.450;2023-02-28T01:24:30;-2.50;99.90
6244;DHT22;3155;49.940;8.450;2023-02-28T01:26:59;-2.60;99.90
6244;DHT22;3155;49.940;8.450;2023-02-28T01:29:29;-2.70;99.90
6244;DHT22;3155;49.940;8.450;2023-02-28T01:31:56;-2.70;99.90
6244;DHT22;3155;49.940;8.450;2023-02-28T01:34:27;-2.70;99.90
6244;DHT22;3155;49.940;8.450;2023-02-28T01:36:53;-2.80;99.90
6244;DHT22;3155;49.940;8.450;2023-02-28T01:39:20;-2.90;99.90
6244;DHT22;3155;49.940;8.450;2023-02-28T01:41:47;-3.00;99.90
6244;DHT22;3155;49.940;8.450;2023-02-28T01:47:18;-2.90;99.90
6244;DHT22;3155;49.940;8.450;2023-02-28T01:49:44;-2.90;99.90
6244;DHT22;3155;49.940;8.450;2023-02-28T01:52:12;-3.00;99.90
6244;DHT22;3155;49.940;8.450;2023-02-28T01:54:52;-3.00;99.90
6244;DHT22;3155;49.940;8.450;2023-02-28T01:57:23;-3.00;99.90
6244;DHT22;3155;49.940;8.450;2023-02-28T02:00:15;-3.10;99.90
6244;DHT22;3155;49.940;8.450;2023-02-28T02:02:44;-3.10;99.90
6244;DHT22;3155;49.940;8.450;2023-02-28T02:05:18;-3.10;99.90
6244;DHT22;3155;49.940;8.450;2023-02-28T02:07:50;-3.10;99.90
6244;DHT22;3155;49.940;8.450;2023-02-28T02:10:19;-3.10;99.90
6244;DHT22;3155;49.940;8.450;2023-02-28T02:18:54;-3.10;99.90
6244;DHT22;3155;49.940;8.450;2023-02-28T02:27:18;-3.20;99.90
6244;DHT22;3155;49.940;8.450;2023-02-28T02:38:19;-3.10;99.90
6244;DHT22;3155;49.940;8.450;2023-02-28T02:41:36;-3.10;99.90
6244;DHT22;3155;49.940;8.450;2023-02-28T02:46:49;-3.10;99.90
6244;DHT22;3155;49.940;8.450;2023-02-28T02:49:31;-3.10;99.90
6244;DHT22;3155;49.940;8.450;2023-02-28T02:52:11;-3.10;99.90
6244;DHT22;3155;49.940;8.450;2023-02-28T02:54:44;-3.10;99.90
6244;DHT22;3155;49.940;8.450;2023-02-28T02:57:26;-3.20;99.90
6244;DHT22;3155;49.940;8.450;2023-02-28T02:59:55;-3.20;99.90
6244;DHT22;3155;49.940;8.450;2023-02-28T03:02:23;-3.30;99.90
6244;DHT22;3155;49.940;8.450;2023-02-28T03:04:53;-3.30;99.90
6244;DHT22;3155;49.940;8.450;2023-02-28T03:07:27;-3.40;99.90
6244;DHT22;3155;49.940;8.450;2023-02-28T03:09:56;-3.50;99.90
6244;DHT22;3155;49.940;8.450;2023-02-28T03:12:49;-3.50;99.90
6244;DHT22;3155;49.940;8.450;2023-02-28T03:15:32;-3.60;99.90
6244;DHT22;3155;49.940;8.450;2023-02-28T03:18:18;-3.60;99.90
6244;DHT22;3155;49.940;8.450;2023-02-28T03:23:45;-3.60;99.90
6244;DHT22;3155;49.940;8.450;2023-02-28T03:26:21;-3.60;99.90
6244;DHT22;3155;49.940;8.450;2023-02-28T03:31:41;-3.50;99.90
6244;DHT22;3155;49.940;8.450;2023-02-28T03:34:22;-3.50;99.90
6244;DHT22;3155;49.940;8.450;2023-02-28T03:36:56;-3.50;99.90
6244;DHT22;3155;49.940;8.450;2023-02-28T03:39:28;-3.60;99.90
6244;DHT22;3155;49.940;8.450;2023-02-28T03:42:00;-3.60;99.90
6244;DHT22;3155;49.940;8.450;2023-02-28T03:44:29;-3.60;99.90
6244;DHT22;3155;49.940;8.450;2023-02-28T03:47:02;-3.60;99.90
6244;DHT22;3155;49.940;8.450;2023-02-28T03:49:45;-3.60;99.90
6244;DHT22;3155;49.940;8.450;2023-02-28T03:52:14;-3.70;99.90
6244;DHT22;3155;49.940;8.450;2023-02-28T03:54:46;-3.80;99.90
6244;DHT22;3155;49.940;8.450;2023-02-28T04:03:00;-4.00;99.90
6244;DHT22;3155;49.940;8.450;2023-02-28T04:05:27;-4.10;99.90
6244;DHT22;3155;49.940;8.450;2023-02-28T04:08:04;-4.20;99.90
6244;DHT22;3155;49.940;8.450;2023-02-28T04:10:31;-4.30;99.90
6244;DHT22;3155;49.940;8.450;2023-02-28T04:12:58;-4.30;99.90
6244;DHT22;3155;49.940;8.450;2023-02-28T04:15:25;-4.40;99.90
6244;DHT22;3155;49.940;8.450;2023-02-28T04:17:56;-4.40;99.90
6244;DHT22;3155;49.940;8.450;2023-02-28T04:20:23;-4.30;99.90
6244;DHT22;3155;49.940;8.450;2023-02-28T04:22:49;-4.20;99.90
6244;DHT22;3155;49.940;8.450;2023-02-28T04:25:16;-4.20;99.90
6244;DHT22;3155;49.940;8.450;2023-02-28T04:27:43;-4.10;99.90
6244;DHT22;3155;49.940;8.450;2023-02-28T04:30:11;-4.00;99.90
6244;DHT22;3155;49.940;8.450;2023-02-28T04:32:38;-4.00;99.90
6244;DHT22;3155;49.940;8.450;2023-02-28T04:35:06;-4.00;99.90
6244;DHT22;3155;49.940;8.450;2023-02-28T04:37:33;-3.90;99.90
6244;DHT22;3155;49.940;8.450;2023-02-28T04:40:01;-3.90;99.90
6244;DHT22;3155;49.940;8.450;2023-02-28T04:42:29;-3.90;99.90
6244;DHT22;3155;49.940;8.450;2023-02-28T04:45:03;-3.90;99.90
6244;DHT22;3155;49.940;8.450;2023-02-28T04:47:30;-3.80;99.90
6244;DHT22;3155;49.940;8.450;2023-02-28T04:49:59;-3.80;99.90
6244;DHT22;3155;49.940;8.450;2023-02-28T04:52:27;-3.70;99.90
6244;DHT22;3155;49.940;8.450;2023-02-28T04:54:54;-3.60;99.90
6244;DHT22;3155;49.940;8.450;2023-02-28T04:57:21;-3.40;99.90
6244;DHT22;3155;49.940;8.450;2023-02-28T04:59:47;-3.20;99.90
6244;DHT22;3155;49.940;8.450;2023-02-28T05:02:14;-3.10;99.90
6244;DHT22;3155;49.940;8.450;2023-02-28T05:04:41;-3.10;99.90
6244;DHT22;3155;49.940;8.450;2023-02-28T05:07:08;-3.10;99.90
6244;DHT22;3155;49.940;8.450;2023-02-28T05:09:34;-3.10;99.90
6244;DHT22;3155;49.940;8.450;2023-02-28T05:12:01;-3.10;99.90
6244;DHT22;3155;49.940;8.450;2023-02-28T05:14:28;-3.10;99.90
6244;DHT22;3155;49.940;8.450;2023-02-28T05:16:55;-3.10;99.90
6244;DHT22;3155;49.940;8.450;2023-02-28T05:19:22;-3.30;99.90
6244;DHT22;3155;49.940;8.450;2023-02-28T05:21:53;-3.40;99.90
6244;DHT22;3155;49.940;8.450;2023-02-28T05:24:21;-3.60;99.90
6244;DHT22;3155;49.940;8.450;2023-02-28T05:26:52;-3.70;99.90
6244;DHT22;3155;49.940;8.450;2023-02-28T05:29:19;-3.70;99.90
6244;DHT22;3155;49.940;8.450;2023-02-28T05:31:46;-3.80;99.90
6244;DHT22;3155;49.940;8.450;2023-02-28T05:34:14;-3.90;99.90
6244;DHT22;3155;49.940;8.450;2023-02-28T05:36:42;-4.00;99.90
6244;DHT22;3155;49.940;8.450;2023-02-28T05:39:09;-4.00;99.90
6244;DHT22;3155;49.940;8.450;2023-02-28T05:41:43;-4.10;99.90
6244;DHT22;3155;49.940;8.450;2023-02-28T05:44:10;-4.20;99.90
6244;DHT22;3155;49.940;8.450;2023-02-28T05:46:39;-4.30;99.90
6244;DHT22;3155;49.940;8.450;2023-02-28T05:49:06;-4.30;99.90
6244;DHT22;3155;49.940;8.450;2023-02-28T05:51:33;-4.40;99.90
6244;DHT22;3155;49.940;8.450;2023-02-28T05:54:03;-4.40;99.90
6244;DHT22;3155;49.940;8.450;2023-02-28T05:56:29;-4.40;99.90
6244;DHT22;3155;49.940;8.450;2023-02-28T05:58:56;-4.30;99.90
6244;DHT22;3155;49.940;8.450;2023-02-28T06:01:38;-4.30;99.90
6244;DHT22;3155;49.940;8.450;2023-02-28T06:04:07;-4.30;99.90
6244;DHT22;3155;49.940;8.450;2023-02-28T06:06:45;-4.40;99.90
6244;DHT22;3155;49.940;8.450;2023-02-28T06:09:12;-4.30;99.90
6244;DHT22;3155;49.940;8.450;2023-02-28T06:11:39;-4.30;99.90
6244;DHT22;3155;49.940;8.450;2023-02-28T06:14:06;-4.30;99.90
6244;DHT22;3155;49.940;8.450;2023-02-28T06:16:34;-4.40;99.90
6244;DHT22;3155;49.940;8.450;2023-02-28T06:19:03;-4.40;99.90
6244;DHT22;3155;49.940;8.450;2023-02-28T06:21:30;-4.30;99.90
6244;DHT22;3155;49.940;8.450;2023-02-28T06:23:57;-4.30;99.90
6244;DHT22;3155;49.940;8.450;2023-02-28T06:26:25;-4.30;99.90
6244;DHT22;3155;49.940;8.450;2023-02-28T06:28:55;-4.20;99.90
6244;DHT22;3155;49.940;8.450;2023-02-28T06:31:22;-4.20;99.90
6244;DHT22;3155;49.940;8.450;2023-02-28T06:33:49;-4.20;99.90
6244;DHT22;3155;49.940;8.450;2023-02-28T06:36:16;-4.20;99.90
6244;DHT22;3155;49.940;8.450;2023-02-28T06:38:43;-4.10;99.90
6244;DHT22;3155;49.940;8.450;2023-02-28T06:41:10;-4.00;99.90
6244;DHT22;3155;49.940;8.450;2023-02-28T06:43:40;-4.00;99.90
6244;DHT22;3155;49.940;8.450;2023-02-28T06:46:10;-3.90;99.90
6244;DHT22;3155;49.940;8.450;2023-02-28T06:48:37;-3.90;99.90
6244;DHT22;3155;49.940;8.450;2023-02-28T06:51:13;-3.80;99.90
6244;DHT22;3155;49.940;8.450;2023-02-28T06:53:41;-3.70;99.90
6244;DHT22;3155;49.940;8.450;2023-02-28T06:56:11;-3.60;99.90
6244;DHT22;3155;49.940;8.450;2023-02-28T06:58:38;-3.50;99.90
6244;DHT22;3155;49.940;8.450;2023-02-28T07:01:06;-3.40;99.90
6244;DHT22;3155;49.940;8.450;2023-02-28T07:03:35;-3.20;99.90
6244;DHT22;3155;49.940;8.450;2023-02-28T07:06:02;-2.80;99.90
6244;DHT22;3155;49.940;8.450;2023-02-28T07:08:32;-2.20;99.90
6244;DHT22;3155;49.940;8.450;2023-02-28T07:10:59;-1.50;99.90
6244;DHT22;3155;49.940;8.450;2023-02-28T07:13:26;-0.90;99.90
6244;DHT22;3155;49.940;8.450;2023-02-28T07:15:58;-0.30;99.90
6244;DHT22;3155;49.940;8.450;2023-02-28T07:18:25;0.20;99.90
6244;DHT22;3155;49.940;8.450;2023-02-28T07:20:52;0.60;99.90
6244;DHT22;3155;49.940;8.450;2023-02-28T07:23:19;0.80;99.90
6244;DHT22;3155;49.940;8.450;2023-02-28T07:25:46;0.90;99.90
6244;DHT22;3155;49.940;8.450;2023-02-28T07:28:13;1.10;99.90
6244;DHT22;3155;49.940;8.450;2023-02-28T07:30:40;1.20;99.90
6244;DHT22;3155;49.940;8.450;2023-02-28T07:33:08;1.30;99.90
6244;DHT22;3155;49.940;8.450;2023-02-28T07:35:34;1.50;99.90
6244;DHT22;3155;49.940;8.450;2023-02-28T07:38:01;1.70;99.90
6244;DHT22;3155;49.940;8.450;2023-02-28T07:40:29;1.80;99.90
6244;DHT22;3155;49.940;8.450;2023-02-28T07:42:56;1.80;99.90
6244;DHT22;3155;49.940;8.450;2023-02-28T07:45:28;1.80;99.90
6244;DHT22;3155;49.940;8.450;2023-02-28T07:47:56;1.60;99.90
6244;DHT22;3155;49.940;8.450;2023-02-28T07:50:23;1.70;99.90
6244;DHT22;3155;49.940;8.450;2023-02-28T07:52:52;1.80;99.90
6244;DHT22;3155;49.940;8.450;2023-02-28T07:55:19;2.00;99.90
6244;DHT22;3155;49.940;8.450;2023-02-28T07:57:46;2.10;99.90
6244;DHT22;3155;49.940;8.450;2023-02-28T08:00:13;2.30;99.90
6244;DHT22;3155;49.940;8.450;2023-02-28T08:02:40;2.30;99.90
6244;DHT22;3155;49.940;8.450;2023-02-28T08:05:07;2.40;99.90
6244;DHT22;3155;49.940;8.450;2023-02-28T08:07:34;2.20;99.90
6244;DHT22;3155;49.940;8.450;2023-02-28T08:10:01;2.30;99.90
6244;DHT22;3155;49.940;8.450;2023-02-28T08:12:28;2.30;99.90
6244;DHT22;3155;49.940;8.450;2023-02-28T08:14:55;2.20;99.90
6244;DHT22;3155;49.940;8.450;2023-02-28T08:17:21;1.90;99.90
6244;DHT22;3155;49.940;8.450;2023-02-28T08:19:48;1.50;99.90
6244;DHT22;3155;49.940;8.450;2023-02-28T08:22:15;1.10;99.90
6244;DHT22;3155;49.940;8.450;2023-02-28T08:24:45;0.90;99.90
6244;DHT22;3155;49.940;8.450;2023-02-28T08:27:12;0.90;99.90
6244;DHT22;3155;49.940;8.450;2023-02-28T08:29:39;1.00;99.90
6244;DHT22;3155;49.940;8.450;2023-02-28T08:32:07;1.10;99.90
6244;DHT22;3155;49.940;8.450;2023-02-28T08:34:49;1.30;99.90
6244;DHT22;3155;49.940;8.450;2023-02-28T08:37:15;1.50;99.90
6244;DHT22;3155;49.940;8.450;2023-02-28T08:39:42;1.60;99.90
6244;DHT22;3155;49.940;8.450;2023-02-28T08:42:09;1.80;99.90
6244;DHT22;3155;49.940;8.450;2023-02-28T08:44:36;2.10;99.90
6244;DHT22;3155;49.940;8.450;2023-02-28T08:47:02;2.20;99.90
6244;DHT22;3155;49.940;8.450;2023-02-28T08:49:29;2.30;99.90
6244;DHT22;3155;49.940;8.450;2023-02-28T08:51:56;2.40;99.90
6244;DHT22;3155;49.940;8.450;2023-02-28T08:54:24;2.20;99.90
6244;DHT22;3155;49.940;8.450;2023-02-28T08:56:51;2.00;99.90
6244;DHT22;3155;49.940;8.450;2023-02-28T08:59:18;1.80;99.90
6244;DHT22;3155;49.940;8.450;2023-02-28T09:01:45;1.80;99.90
6244;DHT22;3155;49.940;8.450;2023-02-28T09:04:11;1.90;99.90
6244;DHT22;3155;49.940;8.450;2023-02-28T09:06:43;1.80;99.90
6244;DHT22;3155;49.940;8.450;2023-02-28T09:09:11;1.80;99.90
6244;DHT22;3155;49.940;8.450;2023-02-28T09:11:40;1.80;99.90
6244;DHT22;3155;49.940;8.450;2023-02-28T09:14:07;1.80;99.90
6244;DHT22;3155;49.940;8.450;2023-02-28T09:16:34;1.70;99.90
6244;DHT22;3155;49.940;8.450;2023-02-28T09:19:02;1.60;99.90
6244;DHT22;3155;49.940;8.450;2023-02-28T09:21:28;1.50;99.90
6244;DHT22;3155;49.940;8.450;2023-02-28T09:23:56;1.50;99.90
6244;DHT22;3155;49.940;8.450;2023-02-28T09:26:25;1.60;99.90
6244;DHT22;3155;49.940;8.450;2023-02-28T09:29:04;1.80;99.90
6244;DHT22;3155;49.940;8.450;2023-02-28T09:31:31;1.90;99.90
6244;DHT22;3155;49.940;8.450;2023-02-28T09:33:58;1.80;99.90
6244;DHT22;3155;49.940;8.450;2023-02-28T09:36:26;2.10;99.90
6244;DHT22;3155;49.940;8.450;2023-02-28T09:39:09;2.50;99.90
6244;DHT22;3155;49.940;8.450;2023-02-28T09:41:42;2.80;99.90
6244;DHT22;3155;49.940;8.450;2023-02-28T09:47:32;3.40;99.90
6244;DHT22;3155;49.940;8.450;2023-02-28T09:50:36;3.60;99.90
6244;DHT22;3155;49.940;8.450;2023-02-28T10:01:39;3.80;99.90
6244;DHT22;3155;49.940;8.450;2023-02-28T10:04:21;4.10;99.90
6244;DHT22;3155;49.940;8.450;2023-02-28T10:06:56;4.20;99.90
6244;DHT22;3155;49.940;8.450;2023-02-28T10:09:30;4.20;99.90
6244;DHT22;3155;49.940;8.450;2023-02-28T10:12:05;4.90;99.90
6244;DHT22;3155;49.940;8.450;2023-02-28T10:14:34;5.20;99.90
6244;DHT22;3155;49.940;8.450;2023-02-28T10:17:04;4.90;99.90
6244;DHT22;3155;49.940;8.450;2023-02-28T10:24:53;5.10;99.90
6244;DHT22;3155;49.940;8.450;2023-02-28T10:27:25;5.90;99.90
6244;DHT22;3155;49.940;8.450;2023-02-28T10:29:54;6.70;99.90
6244;DHT22;3155;49.940;8.450;2023-02-28T10:32:24;6.80;99.90
6244;DHT22;3155;49.940;8.450;2023-02-28T10:35:14;6.70;99.90
6244;DHT22;3155;49.940;8.450;2023-02-28T10:37:47;6.40;99.90
6244;DHT22;3155;49.940;8.450;2023-02-28T10:43:01;5.60;99.90
6244;DHT22;3155;49.940;8.450;2023-02-28T10:45:34;5.50;99.90
6244;DHT22;3155;49.940;8.450;2023-02-28T10:50:51;6.30;99.90
6244;DHT22;3155;49.940;8.450;2023-02-28T10:59:03;6.50;99.90
6244;DHT22;3155;49.940;8.450;2023-02-28T11:01:44;6.50;99.90
6244;DHT22;3155;49.940;8.450;2023-02-28T11:07:19;7.20;99.90
6244;DHT22;3155;49.940;8.450;2023-02-28T11:09:54;7.50;99.90
6244;DHT22;3155;49.940;8.450;2023-02-28T11:12:39;7.50;99.90
6244;DHT22;3155;49.940;8.450;2023-02-28T11:17:58;8.00;99.90
6244;DHT22;3155;49.940;8.450;2023-02-28T11:20:29;8.40;99.90
6244;DHT22;3155;49.940;8.450;2023-02-28T11:23:00;8.40;99.90
6244;DHT22;3155;49.940;8.450;2023-02-28T11:25:36;8.50;99.90
6244;DHT22;3155;49.940;8.450;2023-02-28T11:28:06;8.60;99.90
6244;DHT22;3155;49.940;8.450;2023-02-28T11:30:40;8.30;99.90
6244;DHT22;3155;49.940;8.450;2023-02-28T11:33:28;7.80;99.90
6244;DHT22;3155;49.940;8.450;2023-02-28T11:36:00;7.70;99.90
6244;DHT22;3155;49.940;8.450;2023-02-28T11:38:28;7.70;99.90
6244;DHT22;3155;49.940;8.450;2023-02-28T11:48:41;8.70;99.90
6244;DHT22;3155;49.940;8.450;2023-02-28T11:51:24;8.30;99.90
6244;DHT22;3155;49.940;8.450;2023-02-28T11:56:57;8.10;99.90
6244;DHT22;3155;49.940;8.450;2023-02-28T12:05:18;7.60;99.90
6244;DHT22;3155;49.940;8.450;2023-02-28T12:08:09;7.20;99.90
6244;DHT22;3155;49.940;8.450;2023-02-28T12:14:06;6.10;99.90
6244;DHT22;3155;49.940;8.450;2023-02-28T12:16:54;5.60;99.90
6244;DHT22;3155;49.940;8.450;2023-02-28T12:22:27;6.20;99.90
6244;DHT22;3155;49.940;8.450;2023-02-28T12:27:41;7.30;99.90
6244;DHT22;3155;49.940;8.450;2023-02-28T12:30:25;7.40;99.90
6244;DHT22;3155;49.940;8.450;2023-02-28T12:35:47;7.20;99.90
6244;DHT22;3155;49.940;8.450;2023-02-28T12:38:19;7.50;99.90
6244;DHT22;3155;49.940;8.450;2023-02-28T12:40:52;7.70;99.90
6244;DHT22;3155;49.940;8.450;2023-02-28T12:43:22;7.80;99.90
6244;DHT22;3155;49.940;8.450;2023-02-28T12:46:00;8.00;99.90
6244;DHT22;3155;49.940;8.450;2023-02-28T12:48:39;7.90;99.90
6244;DHT22;3155;49.940;8.450;2023-02-28T12:51:07;7.60;99.90
6244;DHT22;3155;49.940;8.450;2023-02-28T13:02:17;8.00;99.90
6244;DHT22;3155;49.940;8.450;2023-02-28T13:10:49;8.60;99.90
6244;DHT22;3155;49.940;8.450;2023-02-28T13:13:26;8.00;99.90
6244;DHT22;3155;49.940;8.450;2023-02-28T13:16:00;7.30;99.90
6244;DHT22;3155;49.940;8.450;2023-02-28T13:18:34;7.10;99.90
6244;DHT22;3155;49.940;8.450;2023-02-28T13:21:05;7.10;99.90
6244;DHT22;3155;49.940;8.450;2023-02-28T13:26:20;7.10;99.90
6244;DHT22;3155;49.940;8.450;2023-02-28T13:29:01;7.50;99.90
6244;DHT22;3155;49.940;8.450;2023-02-28T13:31:28;7.70;99.90
6244;DHT22;3155;49.940;8.450;2023-02-28T13:36:29;7.90;99.90
6244;DHT22;3155;49.940;8.450;2023-02-28T13:38:58;7.70;99.90
6244;DHT22;3155;49.940;8.450;2023-02-28T13:44:11;7.70;99.90
6244;DHT22;3155;49.940;8.450;2023-02-28T13:57:34;7.80;99.90
6244;DHT22;3155;49.940;8.450;2023-02-28T14:00:19;7.40;99.90
6244;DHT22;3155;49.940;8.450;2023-02-28T14:03:10;7.90;99.90
6244;DHT22;3155;49.940;8.450;2023-02-28T14:05:41;8.50;99.90
6244;DHT22;3155;49.940;8.450;2023-02-28T14:08:15;8.10;99.90
6244;DHT22;3155;49.940;8.450;2023-02-28T14:10:48;8.30;99.90
6244;DHT22;3155;49.940;8.450;2023-02-28T14:27:55;9.10;99.90
6244;DHT22;3155;49.940;8.450;2023-02-28T14:30:11;8.20;99.90
6244;DHT22;3155;49.940;8.450;2023-02-28T14:35:35;8.30;99.90
6244;DHT22;3155;49.940;8.450;2023-02-28T14:38:23;7.70;99.90
6244;DHT22;3155;49.940;8.450;2023-02-28T14:40:53;8.20;99.90
6244;DHT22;3155;49.940;8.450;2023-02-28T14:43:24;8.50;99.90
6244;DHT22;3155;49.940;8.450;2023-02-28T14:45:55;9.00;99.90
6244;DHT22;3155;49.940;8.450;2023-02-28T14:48:23;9.20;99.90
6244;DHT22;3155;49.940;8.450;2023-02-28T14:51:02;9.00;99.90
6244;DHT22;3155;49.940;8.450;2023-02-28T14:53:30;8.70;99.90
6244;DHT22;3155;49.940;8.450;2023-02-28T14:56:01;8.90;99.90
6244;DHT22;3155;49.940;8.450;2023-02-28T15:03:36;9.20;99.90
6244;DHT22;3155;49.940;8.450;2023-02-28T15:06:14;10.30;99.90
6244;DHT22;3155;49.940;8.450;2023-02-28T15:08:42;10.20;99.90
6244;DHT22;3155;49.940;8.450;2023-02-28T15:11:18;10.00;99.90
6244;DHT22;3155;49.940;8.450;2023-02-28T15:26:32;9.40;99.90
6244;DHT22;3155;49.940;8.450;2023-02-28T15:47:05;8.80;99.90
6244;DHT22;3155;49.940;8.450;2023-02-28T15:52:22;8.50;99.90
6244;DHT22;3155;49.940;8.450;2023-02-28T15:54:50;7.10;99.90
6244;DHT22;3155;49.940;8.450;2023-02-28T15:57:21;6.70;99.90
6244;DHT22;3155;49.940;8.450;2023-02-28T15:59:54;6.50;99.90
6244;DHT22;3155;49.940;8.450;2023-02-28T16:02:33;6.30;99.90
6244;DHT22;3155;49.940;8.450;2023-02-28T16:07:44;5.90;99.90
6244;DHT22;3155;49.940;8.450;2023-02-28T16:10:12;5.70;99.90
6244;DHT22;3155;49.940;8.450;2023-02-28T16:12:43;5.60;99.90
6244;DHT22;3155;49.940;8.450;2023-02-28T16:15:20;5.20;99.90
6244;DHT22;3155;49.940;8.450;2023-02-28T16:17:48;5.10;99.90
6244;DHT22;3155;49.940;8.450;2023-02-28T16:20:19;5.10;99.90
6244;DHT22;3155;49.940;8.450;2023-02-28T16:22:55;5.20;99.90
6244;DHT22;3155;49.940;8.450;2023-02-28T16:25:33;5.40;99.90
6244;DHT22;3155;49.940;8.450;2023-02-28T16:28:00;5.50;99.90
6244;DHT22;3155;49.940;8.450;2023-02-28T16:30:29;5.50;99.90
6244;DHT22;3155;49.940;8.450;2023-02-28T16:32:59;5.60;99.90
6244;DHT22;3155;49.940;8.450;2023-02-28T16:35:28;5.60;99.90
6244;DHT22;3155;49.940;8.450;2023-02-28T16:37:55;5.40;99.90
6244;DHT22;3155;49.940;8.450;2023-02-28T16:40:24;5.30;99.90
6244;DHT22;3155;49.940;8.450;2023-02-28T16:42:58;5.00;99.90
6244;DHT22;3155;49.940;8.450;2023-02-28T16:45:28;4.70;99.90
6244;DHT22;3155;49.940;8.450;2023-02-28T16:47:55;4.40;99.90
6244;DHT22;3155;49.940;8.450;2023-02-28T16:50:28;4.10;99.90
6244;DHT22;3155;49.940;8.450;2023-02-28T16:52:56;3.90;99.90
6244;DHT22;3155;49.940;8.450;2023-02-28T16:55:23;3.70;99.90
6244;DHT22;3155;49.940;8.450;2023-02-28T16:57:56;3.50;99.90
6244;DHT22;3155;49.940;8.450;2023-02-28T17:00:23;3.30;99.90
6244;DHT22;3155;49.940;8.450;2023-02-28T17:02:51;3.20;99.90
6244;DHT22;3155;49.940;8.450;2023-02-28T17:05:18;3.00;99.90
6244;DHT22;3155;49.940;8.450;2023-02-28T17:07:48;2.90;99.90
6244;DHT22;3155;49.940;8.450;2023-02-28T17:10:21;2.70;99.90
6244;DHT22;3155;49.940;8.450;2023-02-28T17:12:49;2.50;99.90
6244;DHT22;3155;49.940;8.450;2023-02-28T17:15:18;2.40;99.90
6244;DHT22;3155;49.940;8.450;2023-02-28T17:17:46;2.20;99.90
6244;DHT22;3155;49.940;8.450;2023-02-28T17:20:14;2.10;99.90
6244;DHT22;3155;49.940;8.450;2023-02-28T17:22:53;2.00;99.90
6244;DHT22;3155;49.940;8.450;2023-02-28T17:25:23;1.90;99.90
6244;DHT22;3155;49.940;8.450;2023-02-28T17:27:50;1.90;99.90
6244;DHT22;3155;49.940;8.450;2023-02-28T17:30:22;1.80;99.90
6244;DHT22;3155;49.940;8.450;2023-02-28T17:32:49;1.80;99.90
6244;DHT22;3155;49.940;8.450;2023-02-28T17:35:16;1.80;99.90
6244;DHT22;3155;49.940;8.450;2023-02-28T17:37:43;1.70;99.90
6244;DHT22;3155;49.940;8.450;2023-02-28T17:40:28;1.60;99.90
6244;DHT22;3155;49.940;8.450;2023-02-28T17:42:55;1.50;99.90
6244;DHT22;3155;49.940;8.450;2023-02-28T17:45:23;1.40;99.90
6244;DHT22;3155;49.940;8.450;2023-02-28T17:47:50;1.30;99.90
6244;DHT22;3155;49.940;8.450;2023-02-28T17:50:20;1.20;99.90
6244;DHT22;3155;49.940;8.450;2023-02-28T17:52:48;1.00;99.90
6244;DHT22;3155;49.940;8.450;2023-02-28T17:55:14;1.00;99.90
6244;DHT22;3155;49.940;8.450;2023-02-28T17:57:41;1.00;99.90
6244;DHT22;3155;49.940;8.450;2023-02-28T18:00:12;0.90;99.90
6244;DHT22;3155;49.940;8.450;2023-02-28T18:02:42;0.90;99.90
6244;DHT22;3155;49.940;8.450;2023-02-28T18:05:09;0.80;99.90
6244;DHT22;3155;49.940;8.450;2023-02-28T18:07:37;0.80;99.90
6244;DHT22;3155;49.940;8.450;2023-02-28T18:10:06;0.80;99.90
6244;DHT22;3155;49.940;8.450;2023-02-28T18:12:33;0.70;99.90
6244;DHT22;3155;49.940;8.450;2023-02-28T18:14:59;0.70;99.90
6244;DHT22;3155;49.940;8.450;2023-02-28T18:17:26;0.60;99.90
6244;DHT22;3155;49.940;8.450;2023-02-28T18:19:53;0.60;99.90
6244;DHT22;3155;49.940;8.450;2023-02-28T18:22:20;0.50;99.90
6244;DHT22;3155;49.940;8.450;2023-02-28T18:24:47;0.50;99.90
6244;DHT22;3155;49.940;8.450;2023-02-28T18:27:14;0.50;99.90
6244;DHT22;3155;49.940;8.450;2023-02-28T18:29:41;0.50;99.90
6244;DHT22;3155;49.940;8.450;2023-02-28T18:32:07;0.50;99.90
6244;DHT22;3155;49.940;8.450;2023-02-28T18:34:35;0.40;99.90
6244;DHT22;3155;49.940;8.450;2023-02-28T18:37:02;0.40;99.90
6244;DHT22;3155;49.940;8.450;2023-02-28T18:39:29;0.40;99.90
6244;DHT22;3155;49.940;8.450;2023-02-28T18:41:57;0.30;99.90
6244;DHT22;3155;49.940;8.450;2023-02-28T18:44:23;0.20;99.90
6244;DHT22;3155;49.940;8.450;2023-02-28T18:46:50;0.10;99.90
6244;DHT22;3155;49.940;8.450;2023-02-28T18:49:17;0.00;99.90
6244;DHT22;3155;49.940;8.450;2023-02-28T18:51:44;0.00;99.90
6244;DHT22;3155;49.940;8.450;2023-02-28T18:54:13;-0.10;99.90
6244;DHT22;3155;49.940;8.450;2023-02-28T18:56:41;0.00;99.90
6244;DHT22;3155;49.940;8.450;2023-02-28T18:59:08;0.00;99.90
6244;DHT22;3155;49.940;8.450;2023-02-28T19:01:37;0.10;99.90
6244;DHT22;3155;49.940;8.450;2023-02-28T19:04:04;0.10;99.90
6244;DHT22;3155;49.940;8.450;2023-02-28T19:06:32;0.20;99.90
6244;DHT22;3155;49.940;8.450;2023-02-28T19:09:01;0.30;99.90
6244;DHT22;3155;49.940;8.450;2023-02-28T19:11:29;0.30;99.90
6244;DHT22;3155;49.940;8.450;2023-02-28T19:13:56;0.40;99.90
6244;DHT22;3155;49.940;8.450;2023-02-28T19:16:24;0.40;99.90
6244;DHT22;3155;49.940;8.450;2023-02-28T19:18:51;0.40;99.90
6244;DHT22;3155;49.940;8.450;2023-02-28T19:21:19;0.30;99.90
6244;DHT22;3155;49.940;8.450;2023-02-28T19:23:47;0.40;99.90
6244;DHT22;3155;49.940;8.450;2023-02-28T19:26:23;0.40;99.90
6244;DHT22;3155;49.940;8.450;2023-02-28T19:28:50;0.40;99.90
6244;DHT22;3155;49.940;8.450;2023-02-28T19:31:22;0.30;99.90
6244;DHT22;3155;49.940;8.450;2023-02-28T19:33:50;0.30;99.90
6244;DHT22;3155;49.940;8.450;2023-02-28T19:36:19;0.30;99.90
6244;DHT22;3155;49.940;8.450;2023-02-28T19:38:46;0.30;99.90
6244;DHT22;3155;49.940;8.450;2023-02-28T19:41:14;0.30;99.90
6244;DHT22;3155;49.940;8.450;2023-02-28T19:43:41;0.30;99.90